Time;durP1;ratioP1;P1;durP2;ratioP2;P2;SDS_P1;SDS_P2;PMS_P1;PMS_P2;Temp;Humidity;BMP_temperature;BMP_pressure;BME280_temperature;BME280_humidity;BME280_pressure;Samples;Min_cycle;Max_cycle;Signal;HPM_P1;HPM_P2
2022/12/19 00:01:36;;;;;;;;;;;;;;;4.20;39.26;101817.16;4352294;32;32720;-64
2022/12/19 00:04:05;;;;;;;;;;;;;;;4.29;39.15;101821.41;4353129;32;33991;-65
2022/12/19 00:06:35;;;;;;;;;;;;;;;4.38;38.87;101826.56;4353872;32;34215;-65
2022/12/19 00:09:02;;;;;;;;;;;;;;;4.48;38.75;101829.94;4350094;32;33095;-65
2022/12/19 00:11:30;;;;;;;;;;;;;;;4.48;38.79;101831.72;4352728;32;34177;-65
2022/12/19 00:13:57;;;;;;;;;;;;;;;4.25;39.38;101835.62;4350420;32;34222;-65
2022/12/19 00:16:26;;;;;;;;;;;;;;;4.43;38.53;101840.66;4352020;32;33927;-64
2022/12/19 00:18:54;;;;;;;;;;;;;;;4.22;38.76;101835.66;4355495;32;33620;-67
2022/12/19 00:21:22;;;;;;;;;;;;;;;4.37;38.53;101837.22;4357771;32;34096;-66
2022/12/19 00:23:50;;;;;;;;;;;;;;;4.33;38.53;101841.66;4357772;32;35446;-65
2022/12/19 00:26:17;;;;;;;;;;;;;;;4.38;38.51;101833.66;4355354;32;35159;-64
2022/12/19 00:28:46;;;;;;;;;;;;;;;4.31;39.06;101832.00;4358589;32;34754;-63
2022/12/19 00:31:14;;;;;;;;;;;;;;;4.43;38.90;101831.81;4361134;32;32659;-64
2022/12/19 00:33:41;;;;;;;;;;;;;;;4.42;38.82;101825.63;4355943;32;33160;-65
2022/12/19 00:36:15;;;;;;;;;;;;;;;4.46;38.72;101829.09;4357443;32;34180;-65
2022/12/19 00:38:50;;;;;;;;;;;;;;;4.37;38.88;101840.75;4356858;32;33238;-64
2022/12/19 00:41:19;;;;;;;;;;;;;;;4.42;38.75;101828.28;4358235;32;34920;-65
2022/12/19 00:43:49;;;;;;;;;;;;;;;4.55;38.34;101828.94;4357296;32;34923;-67
2022/12/19 00:46:16;;;;;;;;;;;;;;;4.49;38.46;101830.81;4358764;32;34227;-65
2022/12/19 00:48:45;;;;;;;;;;;;;;;4.49;38.46;101826.37;4358724;32;34056;-66
2022/12/19 00:51:13;;;;;;;;;;;;;;;4.36;38.86;101828.38;4357402;32;35202;-64
2022/12/19 00:53:42;;;;;;;;;;;;;;;4.61;38.30;101830.63;4355773;32;34224;-64
2022/12/19 00:56:10;;;;;;;;;;;;;;;4.60;38.35;101829.75;4357838;32;34339;-64
2022/12/19 00:58:38;;;;;;;;;;;;;;;4.52;38.55;101826.34;4344785;32;33289;-65
2022/12/19 01:01:23;;;;;;;;;;;;;;;4.48;38.87;101832.59;4350815;32;35346;-66
2022/12/19 01:03:50;;;;;;;;;;;;;;;4.54;38.73;101831.62;4357818;32;33830;-64
2022/12/19 01:06:41;;;;;;;;;;;;;;;4.69;38.37;101818.12;4354655;32;35059;-63
2022/12/19 01:09:10;;;;;;;;;;;;;;;4.62;38.63;101813.81;4357657;32;32973;-64
2022/12/19 01:14:23;;;;;;;;;;;;;;;4.72;38.38;101812.75;4357170;32;34204;-64
2022/12/19 01:16:50;;;;;;;;;;;;;;;4.32;39.56;101813.41;4356811;32;34931;-64
2022/12/19 01:19:18;;;;;;;;;;;;;;;4.61;38.92;101817.38;4358868;32;33713;-64
2022/12/19 01:21:46;;;;;;;;;;;;;;;4.59;39.04;101809.44;4355469;32;34599;-65
2022/12/19 01:24:14;;;;;;;;;;;;;;;4.72;38.88;101798.59;4358026;32;34084;-64
2022/12/19 01:26:48;;;;;;;;;;;;;;;4.86;38.37;101792.16;4356938;32;33494;-65
2022/12/19 01:29:15;;;;;;;;;;;;;;;4.67;38.95;101788.09;4356317;32;33289;-67
2022/12/19 01:31:42;;;;;;;;;;;;;;;4.62;39.50;101789.94;4355653;32;32836;-67
2022/12/19 01:34:10;;;;;;;;;;;;;;;2.83;45.31;101788.03;4355967;32;35572;-67
2022/12/19 01:36:37;;;;;;;;;;;;;;;3.41;45.24;101776.75;4356870;32;35216;-64
2022/12/19 01:39:06;;;;;;;;;;;;;;;2.30;49.27;101784.97;4352975;32;33409;-65
2022/12/19 01:41:34;;;;;;;;;;;;;;;2.43;50.23;101785.72;4352682;32;32842;-65
2022/12/19 01:44:02;;;;;;;;;;;;;;;0.76;56.03;101786.63;4357606;32;34380;-65
2022/12/19 01:46:32;;;;;;;;;;;;;;;1.42;55.82;101775.87;4352694;32;33599;-65
2022/12/19 01:49:00;;;;;;;;;;;;;;;0.85;57.85;101777.81;4344416;32;33932;-65
2022/12/19 01:51:29;;;;;;;;;;;;;;;1.56;57.09;101781.06;4359090;32;34091;-62
2022/12/19 01:53:58;;;;;;;;;;;;;;;1.85;55.18;101783.53;4357340;32;34004;-64
2022/12/19 01:56:28;;;;;;;;;;;;;;;2.38;55.26;101782.28;4343499;32;33485;-63
2022/12/19 01:58:56;;;;;;;;;;;;;;;1.64;56.97;101784.56;4354946;32;32447;-62
2022/12/19 02:01:35;;;;;;;;;;;;;;;2.35;55.10;101784.94;4357074;32;34811;-63
2022/12/19 02:04:20;;;;;;;;;;;;;;;2.59;54.17;101782.97;4357286;32;35164;-66
2022/12/19 02:06:47;;;;;;;;;;;;;;;3.29;52.22;101783.97;4343346;32;35346;-65
2022/12/19 02:09:15;;;;;;;;;;;;;;;3.31;52.79;101775.13;4353597;32;33979;-64
2022/12/19 02:11:42;;;;;;;;;;;;;;;3.97;50.73;101774.22;4353870;32;33931;-64
2022/12/19 02:14:09;;;;;;;;;;;;;;;3.71;51.10;101780.75;4357722;32;35516;-64
2022/12/19 02:16:40;;;;;;;;;;;;;;;3.34;52.31;101783.03;4358482;32;34273;-66
2022/12/19 02:19:11;;;;;;;;;;;;;;;3.95;50.16;101784.84;4343741;32;32303;-64
2022/12/19 02:21:58;;;;;;;;;;;;;;;3.72;51.66;101781.63;4354047;32;34387;-64
2022/12/19 02:24:43;;;;;;;;;;;;;;;4.32;50.02;101780.72;4356096;32;34247;-65
2022/12/19 02:27:29;;;;;;;;;;;;;;;3.54;52.40;101787.19;4318716;32;796124;-64
2022/12/19 02:30:03;;;;;;;;;;;;;;;4.65;49.09;101796.09;4358650;32;33145;-65
2022/12/19 02:32:32;;;;;;;;;;;;;;;4.57;49.46;101787.38;4356027;32;34194;-64
2022/12/19 02:35:12;;;;;;;;;;;;;;;4.85;48.60;101786.88;4348969;32;35420;-64
2022/12/19 02:37:46;;;;;;;;;;;;;;;4.76;48.46;101792.34;4348495;32;34976;-65
2022/12/19 02:40:19;;;;;;;;;;;;;;;4.89;48.64;101805.38;4335978;32;34347;-65
2022/12/19 02:42:47;;;;;;;;;;;;;;;5.21;47.70;101803.88;4356420;32;33253;-67
2022/12/19 02:45:15;;;;;;;;;;;;;;;5.32;47.58;101806.31;4353483;32;33750;-65
2022/12/19 02:47:56;;;;;;;;;;;;;;;5.57;46.80;101796.06;4345023;32;34049;-63
2022/12/19 02:50:25;;;;;;;;;;;;;;;5.63;46.37;101798.59;4357222;32;32999;-65
2022/12/19 02:52:52;;;;;;;;;;;;;;;5.60;47.16;101794.22;4357730;32;34454;-65
2022/12/19 02:55:21;;;;;;;;;;;;;;;5.61;46.91;101793.28;4354999;32;35985;-66
2022/12/19 02:57:48;;;;;;;;;;;;;;;5.41;47.82;101784.88;4341722;32;33706;-65
2022/12/19 03:00:22;;;;;;;;;;;;;;;5.48;47.28;101782.97;4351625;32;33387;-64
2022/12/19 03:03:00;;;;;;;;;;;;;;;5.69;46.55;101784.31;4339748;32;34423;-65
2022/12/19 03:05:36;;;;;;;;;;;;;;;5.78;46.27;101784.97;4341580;32;33998;-64
2022/12/19 03:08:08;;;;;;;;;;;;;;;5.53;46.73;101781.09;4346770;32;34457;-64
2022/12/19 03:10:43;;;;;;;;;;;;;;;5.73;46.47;101775.34;4344826;32;33547;-65
2022/12/19 03:13:11;;;;;;;;;;;;;;;5.80;46.36;101772.50;4354816;32;33597;-65
2022/12/19 03:15:39;;;;;;;;;;;;;;;5.76;46.48;101783.25;4333625;32;34386;-65
2022/12/19 03:18:07;;;;;;;;;;;;;;;5.72;46.73;101776.25;4357602;32;35173;-64
2022/12/19 03:20:38;;;;;;;;;;;;;;;5.95;46.23;101775.78;4350273;32;34540;-64
2022/12/19 03:23:05;;;;;;;;;;;;;;;6.05;46.04;101766.66;4343291;32;34175;-65
2022/12/19 03:25:33;;;;;;;;;;;;;;;5.95;46.03;101760.69;4356062;32;33039;-64
2022/12/19 03:28:01;;;;;;;;;;;;;;;6.13;45.88;101753.16;4355401;32;34006;-66
2022/12/19 03:30:29;;;;;;;;;;;;;;;6.02;46.19;101745.47;4354755;32;34543;-65
2022/12/19 03:32:56;;;;;;;;;;;;;;;5.73;46.79;101757.62;4339781;32;32863;-63
2022/12/19 03:35:25;;;;;;;;;;;;;;;4.79;48.83;101760.47;4355375;32;33044;-65
2022/12/19 03:37:52;;;;;;;;;;;;;;;4.13;51.90;101749.22;4351251;32;34058;-65
2022/12/19 03:40:20;;;;;;;;;;;;;;;5.33;48.50;101741.69;4344362;32;33261;-64
2022/12/19 03:45:41;;;;;;;;;;;;;;;4.13;51.37;101748.34;4354951;32;34291;-67
2022/12/19 03:48:16;;;;;;;;;;;;;;;5.37;48.91;101751.34;4356015;32;34225;-64
2022/12/19 03:50:54;;;;;;;;;;;;;;;5.32;49.14;101751.41;4342147;32;32983;-64
2022/12/19 03:53:28;;;;;;;;;;;;;;;4.72;50.55;101750.84;4363769;32;35006;-64
2022/12/19 03:55:59;;;;;;;;;;;;;;;5.17;49.54;101756.16;4357251;32;34076;-64
2022/12/19 03:58:27;;;;;;;;;;;;;;;3.61;53.84;101752.66;4352015;32;35823;-64
2022/12/19 04:00:54;;;;;;;;;;;;;;;4.07;53.02;101754.63;4355400;32;32036;-64
2022/12/19 04:03:22;;;;;;;;;;;;;;;5.12;49.80;101751.84;4365663;32;33984;-64
2022/12/19 04:05:49;;;;;;;;;;;;;;;5.44;49.09;101749.41;4350094;32;34159;-65
2022/12/19 04:08:16;;;;;;;;;;;;;;;4.86;51.17;101755.00;4351899;32;32609;-63
2022/12/19 04:10:48;;;;;;;;;;;;;;;4.91;50.33;101757.56;4356401;32;33462;-65
2022/12/19 04:13:16;;;;;;;;;;;;;;;4.88;51.47;101758.50;4345227;32;33004;-66
2022/12/19 04:15:43;;;;;;;;;;;;;;;4.65;51.69;101753.66;4355030;32;35250;-64
2022/12/19 04:18:10;;;;;;;;;;;;;;;4.27;52.42;101751.66;4351095;32;33743;-65
2022/12/19 04:20:38;;;;;;;;;;;;;;;5.05;50.60;101757.31;4355984;32;32885;-65
2022/12/19 04:23:11;;;;;;;;;;;;;;;5.30;49.38;101768.31;4347929;32;35404;-75
2022/12/19 04:25:42;;;;;;;;;;;;;;;5.55;49.00;101760.66;4347517;32;32476;-65
2022/12/19 04:28:17;;;;;;;;;;;;;;;5.12;50.63;101757.16;4361991;32;34213;-65
2022/12/19 04:30:45;;;;;;;;;;;;;;;3.62;54.02;101769.41;4352223;32;33425;-65
2022/12/19 04:33:12;;;;;;;;;;;;;;;2.75;56.89;101766.06;4359343;32;32863;-64
2022/12/19 04:35:40;;;;;;;;;;;;;;;3.74;55.04;101763.97;4350288;32;34264;-65
2022/12/19 04:38:07;;;;;;;;;;;;;;;4.72;52.21;101761.47;4361759;32;32618;-65
2022/12/19 04:40:35;;;;;;;;;;;;;;;3.21;55.63;101749.66;4344109;32;34586;-66
2022/12/19 04:43:08;;;;;;;;;;;;;;;4.67;52.37;101757.12;4361832;32;35185;-67
2022/12/19 04:45:35;;;;;;;;;;;;;;;3.95;54.37;101758.34;4361280;32;35661;-66
2022/12/19 04:48:03;;;;;;;;;;;;;;;2.87;57.19;101758.00;4359780;32;34428;-66
2022/12/19 04:50:31;;;;;;;;;;;;;;;4.34;53.64;101753.31;4358649;32;33522;-67
2022/12/19 04:52:59;;;;;;;;;;;;;;;4.56;53.58;101744.94;4361011;32;32743;-65
2022/12/19 04:55:26;;;;;;;;;;;;;;;4.37;52.78;101750.59;4361572;32;35041;-65
2022/12/19 04:57:53;;;;;;;;;;;;;;;4.99;51.62;101762.72;4358822;32;35058;-66
2022/12/19 05:00:21;;;;;;;;;;;;;;;3.97;55.14;101756.53;4356872;32;33359;-65
2022/12/19 05:02:48;;;;;;;;;;;;;;;4.74;52.21;101763.19;4360763;32;32836;-65
2022/12/19 05:05:17;;;;;;;;;;;;;;;4.27;52.91;101764.00;4359162;32;32813;-68
2022/12/19 05:07:45;;;;;;;;;;;;;;;4.35;53.70;101760.34;4359310;32;33997;-65
2022/12/19 05:10:13;;;;;;;;;;;;;;;3.72;55.51;101768.38;4359997;32;33311;-66
2022/12/19 05:12:40;;;;;;;;;;;;;;;3.56;56.41;101766.84;4358621;32;34117;-66
2022/12/19 05:15:08;;;;;;;;;;;;;;;4.22;54.92;101765.87;4358283;32;34176;-74
2022/12/19 05:17:35;;;;;;;;;;;;;;;4.04;55.06;101770.56;4359323;32;33663;-65
2022/12/19 05:20:03;;;;;;;;;;;;;;;3.85;54.76;101777.94;4357951;32;34019;-66
2022/12/19 05:22:30;;;;;;;;;;;;;;;4.67;53.57;101780.13;4352158;32;33843;-65
2022/12/19 05:24:57;;;;;;;;;;;;;;;5.03;52.60;101775.03;4360247;32;32808;-66
2022/12/19 05:27:24;;;;;;;;;;;;;;;5.24;51.83;101771.97;4355917;32;33774;-67
2022/12/19 05:29:52;;;;;;;;;;;;;;;3.92;54.73;101762.81;4360338;32;32073;-66
2022/12/19 05:32:19;;;;;;;;;;;;;;;3.61;56.30;101765.91;4360201;32;34237;-66
2022/12/19 05:34:46;;;;;;;;;;;;;;;4.04;55.14;101756.44;4361983;32;35141;-65
2022/12/19 05:37:14;;;;;;;;;;;;;;;3.11;57.91;101756.81;4358824;32;35462;-66
2022/12/19 05:39:41;;;;;;;;;;;;;;;4.83;53.57;101754.19;4344982;32;34211;-64
2022/12/19 05:42:08;;;;;;;;;;;;;;;5.13;52.67;101755.34;4357563;32;35100;-66
2022/12/19 05:44:38;;;;;;;;;;;;;;;5.66;50.92;101747.16;4360850;32;34397;-65
2022/12/19 05:47:06;;;;;;;;;;;;;;;5.60;50.74;101750.84;4361561;32;34266;-64
2022/12/19 05:49:33;;;;;;;;;;;;;;;5.60;50.86;101749.03;4360493;32;32044;-65
2022/12/19 05:52:00;;;;;;;;;;;;;;;5.35;51.41;101756.66;4355034;32;32738;-64
2022/12/19 05:54:27;;;;;;;;;;;;;;;5.60;50.78;101745.50;4353773;32;34211;-66
2022/12/19 05:56:55;;;;;;;;;;;;;;;5.75;51.06;101742.53;4358750;32;34069;-65
2022/12/19 05:59:23;;;;;;;;;;;;;;;6.01;50.01;101749.91;4359883;32;32899;-66
2022/12/19 06:01:50;;;;;;;;;;;;;;;6.00;49.65;101747.28;4354979;32;34994;-66
2022/12/19 06:04:18;;;;;;;;;;;;;;;4.98;51.66;101753.03;4346954;32;35458;-65
2022/12/19 06:06:45;;;;;;;;;;;;;;;5.55;51.22;101752.69;4355238;32;32389;-65
2022/12/19 06:09:12;;;;;;;;;;;;;;;5.88;50.50;101752.88;4360566;32;32353;-65
2022/12/19 06:11:40;;;;;;;;;;;;;;;5.96;50.45;101761.56;4356307;32;34769;-66
2022/12/19 06:14:07;;;;;;;;;;;;;;;6.08;50.09;101766.59;4361698;32;33768;-66
2022/12/19 06:16:35;;;;;;;;;;;;;;;6.41;49.28;101764.88;4359917;32;33963;-66
2022/12/19 06:19:02;;;;;;;;;;;;;;;5.29;51.85;101778.03;4358564;32;33285;-66
2022/12/19 06:21:29;;;;;;;;;;;;;;;5.71;50.62;101763.88;4358420;32;33757;-66
2022/12/19 06:23:57;;;;;;;;;;;;;;;5.00;52.82;101768.00;4352508;32;34738;-66
2022/12/19 06:26:24;;;;;;;;;;;;;;;3.68;56.71;101777.28;4349165;32;34099;-66
2022/12/19 06:28:51;;;;;;;;;;;;;;;5.47;52.53;101771.47;4350895;32;33014;-65
2022/12/19 06:31:19;;;;;;;;;;;;;;;4.82;54.49;101771.91;4348644;32;35087;-65
2022/12/19 06:33:47;;;;;;;;;;;;;;;4.14;55.86;101768.63;4358416;32;33821;-65
2022/12/19 06:36:18;;;;;;;;;;;;;;;3.55;58.59;101767.75;4358954;32;34411;-65
2022/12/19 06:38:46;;;;;;;;;;;;;;;2.69;61.08;101785.50;4359643;32;32309;-65
2022/12/19 06:44:00;;;;;;;;;;;;;;;2.82;60.68;101778.31;4352000;32;34061;-65
2022/12/19 06:46:28;;;;;;;;;;;;;;;3.96;57.98;101780.41;4357273;32;33979;-66
2022/12/19 06:48:55;;;;;;;;;;;;;;;4.38;56.87;101780.62;4360252;32;31934;-65
2022/12/19 06:51:22;;;;;;;;;;;;;;;3.51;58.75;101772.22;4359229;32;33812;-66
2022/12/19 06:53:50;;;;;;;;;;;;;;;2.05;64.07;101781.63;4358935;32;33141;-63
2022/12/19 06:56:17;;;;;;;;;;;;;;;2.56;62.27;101770.66;4355972;32;35421;-65
2022/12/19 06:58:45;;;;;;;;;;;;;;;3.92;58.74;101769.00;4357198;32;34542;-65
2022/12/19 07:01:20;;;;;;;;;;;;;;;3.78;58.99;101764.78;4359729;32;35205;-70
2022/12/19 07:03:47;;;;;;;;;;;;;;;3.56;59.23;101774.78;4357937;32;33801;-66
2022/12/19 07:06:15;;;;;;;;;;;;;;;2.90;61.63;101775.59;4360944;32;33588;-66
2022/12/19 07:08:42;;;;;;;;;;;;;;;3.07;61.29;101778.06;4357729;32;33438;-67
2022/12/19 07:11:09;;;;;;;;;;;;;;;3.39;60.35;101782.97;4347110;32;36047;-66
2022/12/19 07:13:37;;;;;;;;;;;;;;;2.93;61.34;101788.81;4357561;32;34386;-67
2022/12/19 07:16:04;;;;;;;;;;;;;;;3.00;61.61;101791.34;4358775;32;34005;-67
2022/12/19 07:18:33;;;;;;;;;;;;;;;2.38;63.52;101794.62;4359351;32;34835;-67
2022/12/19 07:21:01;;;;;;;;;;;;;;;2.08;64.53;101796.59;4345477;32;34301;-66
2022/12/19 07:23:28;;;;;;;;;;;;;;;2.89;62.47;101792.34;4348802;32;34347;-67
2022/12/19 07:25:56;;;;;;;;;;;;;;;3.19;61.48;101783.22;4354403;32;35221;-67
2022/12/19 07:28:23;;;;;;;;;;;;;;;1.86;65.38;101787.91;4358822;32;33189;-67
2022/12/19 07:30:51;;;;;;;;;;;;;;;1.75;65.43;101784.47;4358947;32;34121;-66
2022/12/19 07:33:18;;;;;;;;;;;;;;;1.37;67.55;101796.09;4359779;32;35513;-67
2022/12/19 07:35:48;;;;;;;;;;;;;;;1.53;68.52;101787.22;4372607;32;33207;-66
2022/12/19 07:38:15;;;;;;;;;;;;;;;0.87;69.59;101790.13;4359615;32;33208;-66
2022/12/19 07:40:42;;;;;;;;;;;;;;;1.35;68.51;101788.22;4358721;32;33675;-66
2022/12/19 07:43:10;;;;;;;;;;;;;;;0.86;70.06;101792.75;4357898;32;34297;-65
2022/12/19 07:45:37;;;;;;;;;;;;;;;0.11;73.02;101783.16;4354209;32;34781;-66
2022/12/19 07:48:05;;;;;;;;;;;;;;;0.84;70.29;101786.63;4353274;32;33199;-67
2022/12/19 07:50:32;;;;;;;;;;;;;;;1.62;68.39;101768.72;4353032;32;35540;-67
2022/12/19 07:53:00;;;;;;;;;;;;;;;1.08;68.68;101785.66;4357895;32;35004;-66
2022/12/19 07:55:27;;;;;;;;;;;;;;;1.14;68.66;101796.19;4350937;32;34116;-66
2022/12/19 07:57:55;;;;;;;;;;;;;;;0.98;68.94;101803.28;4358889;32;34080;-66
2022/12/19 08:00:22;;;;;;;;;;;;;;;0.97;68.84;101812.06;4356372;32;33918;-66
2022/12/19 08:02:49;;;;;;;;;;;;;;;1.32;67.71;101806.69;4352248;32;35421;-66
2022/12/19 08:05:17;;;;;;;;;;;;;;;2.43;63.65;101798.94;4354228;32;34400;-66
2022/12/19 08:07:45;;;;;;;;;;;;;;;1.17;66.79;101807.59;4357675;32;33580;-67
2022/12/19 08:10:13;;;;;;;;;;;;;;;1.90;64.89;101810.81;4353897;32;33701;-67
2022/12/19 08:12:41;;;;;;;;;;;;;;;1.37;66.00;101820.72;4350845;32;34372;-66
2022/12/19 08:15:08;;;;;;;;;;;;;;;0.67;68.58;101819.16;4354689;32;35216;-66
2022/12/19 08:17:37;;;;;;;;;;;;;;;1.50;65.94;101829.47;4358277;32;31767;-66
2022/12/19 08:20:05;;;;;;;;;;;;;;;2.74;60.47;101822.50;4357984;32;33936;-67
2022/12/19 08:22:33;;;;;;;;;;;;;;;1.91;62.75;101831.03;4355693;32;32855;-66
2022/12/19 08:25:00;;;;;;;;;;;;;;;2.99;58.31;101821.34;4354708;32;33722;-67
2022/12/19 08:27:28;;;;;;;;;;;;;;;2.26;58.65;101822.00;4357118;32;34011;-69
2022/12/19 08:29:55;;;;;;;;;;;;;;;2.06;57.66;101814.22;4358813;32;35131;-66
2022/12/19 08:32:22;;;;;;;;;;;;;;;1.49;57.73;101811.88;4350933;32;33336;-67
2022/12/19 08:34:50;;;;;;;;;;;;;;;0.48;60.23;101812.13;4356947;32;34666;-67
2022/12/19 08:37:17;;;;;;;;;;;;;;;0.37;60.30;101813.88;4357203;32;34904;-66
2022/12/19 08:39:44;;;;;;;;;;;;;;;0.88;59.88;101801.53;4359170;32;34052;-66
2022/12/19 08:42:12;;;;;;;;;;;;;;;1.69;57.13;101789.78;4360457;32;34337;-68
2022/12/19 08:44:39;;;;;;;;;;;;;;;2.08;56.97;101794.81;4360784;32;34011;-66
2022/12/19 08:47:06;;;;;;;;;;;;;;;2.19;58.02;101792.13;4358922;32;33030;-68
2022/12/19 08:49:33;;;;;;;;;;;;;;;2.19;57.02;101788.59;4364542;32;35165;-67
2022/12/19 08:52:01;;;;;;;;;;;;;;;2.06;55.38;101793.97;4360126;32;34165;-66
2022/12/19 08:54:28;;;;;;;;;;;;;;;2.16;55.02;101789.50;4360751;32;34593;-66
2022/12/19 08:56:55;;;;;;;;;;;;;;;2.10;55.84;101793.03;4355254;32;33111;-67
2022/12/19 08:59:22;;;;;;;;;;;;;;;2.09;55.86;101793.94;4365765;32;35191;-67
2022/12/19 09:01:58;;;;;;;;;;;;;;;3.32;53.68;101802.47;4358576;32;34809;-68
2022/12/19 09:04:27;;;;;;;;;;;;;;;3.11;52.88;101795.66;4360557;32;34191;-67
2022/12/19 09:07:14;;;;;;;;;;;;;;;4.73;49.67;101801.25;4360398;32;32965;-67
2022/12/19 09:09:42;;;;;;;;;;;;;;;4.28;49.26;101785.22;4359006;32;34345;-66
2022/12/19 09:12:11;;;;;;;;;;;;;;;3.75;50.75;101781.59;4364401;32;34539;-67
2022/12/19 09:14:38;;;;;;;;;;;;;;;4.82;48.83;101778.97;4358213;32;34198;-69
2022/12/19 09:17:05;;;;;;;;;;;;;;;5.07;48.83;101769.66;4362299;32;33657;-67
2022/12/19 09:19:33;;;;;;;;;;;;;;;5.26;46.72;101774.56;4360999;32;34742;-67
2022/12/19 09:22:00;;;;;;;;;;;;;;;5.05;47.50;101791.81;4368433;32;34359;-65
2022/12/19 09:24:27;;;;;;;;;;;;;;;5.94;45.74;101796.16;4358438;32;33626;-67
2022/12/19 09:26:55;;;;;;;;;;;;;;;5.92;45.51;101792.63;4361131;32;32382;-68
2022/12/19 09:29:23;;;;;;;;;;;;;;;7.39;43.13;101788.84;4357180;32;35121;-66
2022/12/19 09:31:51;;;;;;;;;;;;;;;7.49;41.53;101793.91;4358778;32;34246;-67
2022/12/19 09:34:24;;;;;;;;;;;;;;;6.81;43.45;101785.13;4355701;32;35073;-66
2022/12/19 09:37:05;;;;;;;;;;;;;;;7.31;42.33;101774.84;4358873;32;33568;-67
2022/12/19 09:39:33;;;;;;;;;;;;;;;6.49;43.12;101770.00;4361783;32;34865;-70
2022/12/19 09:42:10;;;;;;;;;;;;;;;4.96;46.73;101766.31;4357866;32;34112;-69
2022/12/19 09:44:43;;;;;;;;;;;;;;;4.64;47.69;101766.91;4359621;32;35675;-67
2022/12/19 09:47:15;;;;;;;;;;;;;;;3.72;50.16;101765.75;4360708;32;34512;-67
2022/12/19 09:49:43;;;;;;;;;;;;;;;4.02;50.39;101766.22;4346903;32;35257;-65
2022/12/19 09:52:18;;;;;;;;;;;;;;;4.15;50.19;101760.69;4360265;32;34148;-65
2022/12/19 09:54:48;;;;;;;;;;;;;;;3.19;51.80;101754.97;4348992;32;33458;-64
2022/12/19 09:57:24;;;;;;;;;;;;;;;3.92;50.50;101753.09;4356592;32;32780;-65
2022/12/19 09:59:56;;;;;;;;;;;;;;;6.25;45.21;101740.44;4351112;32;34953;-66
2022/12/19 10:02:41;;;;;;;;;;;;;;;5.97;45.49;101737.63;4340500;32;34452;-64
2022/12/19 10:05:35;;;;;;;;;;;;;;;4.04;48.35;101751.13;4355203;32;34325;-65
2022/12/19 10:08:30;;;;;;;;;;;;;;;5.78;45.89;101728.28;4358578;32;31623;-66
2022/12/19 10:11:02;;;;;;;;;;;;;;;6.63;43.66;101729.75;4345393;32;34373;-66
2022/12/19 10:13:49;;;;;;;;;;;;;;;6.39;44.06;101726.81;4343489;32;34259;-66
2022/12/19 10:16:25;;;;;;;;;;;;;;;6.61;43.32;101721.78;4357297;32;34945;-66
2022/12/19 10:18:53;;;;;;;;;;;;;;;7.40;42.42;101729.31;4360337;32;33076;-65
2022/12/19 10:21:28;;;;;;;;;;;;;;;8.42;39.87;101729.63;4354959;32;34923;-66
2022/12/19 10:24:19;;;;;;;;;;;;;;;9.05;38.56;101725.59;4347974;32;34360;-66
2022/12/19 10:26:50;;;;;;;;;;;;;;;9.62;37.52;101725.22;4356799;32;34438;-66
2022/12/19 10:29:36;;;;;;;;;;;;;;;8.02;39.99;101724.72;4356319;32;32402;-65
2022/12/19 10:32:08;;;;;;;;;;;;;;;7.70;40.94;101721.28;4355842;32;33888;-64
2022/12/19 10:34:36;;;;;;;;;;;;;;;8.22;39.70;101721.37;4346687;32;32291;-64
2022/12/19 10:37:26;;;;;;;;;;;;;;;7.94;39.81;101715.16;4357202;32;34621;-64
2022/12/19 10:40:14;;;;;;;;;;;;;;;7.50;40.72;101703.25;4357512;32;33427;-66
2022/12/19 10:43:30;;;;;;;;;;;;;;;6.92;41.74;101700.53;4346724;32;33504;-65
2022/12/19 10:46:09;;;;;;;;;;;;;;;6.89;41.76;101699.75;4356688;32;35132;-65
2022/12/19 10:48:37;;;;;;;;;;;;;;;6.44;43.17;101698.28;4345583;32;32674;-65
2022/12/19 10:51:08;;;;;;;;;;;;;;;6.59;42.98;101705.00;4358418;32;33236;-65
2022/12/19 10:53:35;;;;;;;;;;;;;;;6.34;42.67;101696.78;4342151;32;33945;-64
2022/12/19 10:56:13;;;;;;;;;;;;;;;6.26;43.08;101704.09;4358163;32;34404;-66
2022/12/19 10:58:41;;;;;;;;;;;;;;;7.39;42.18;101690.28;4346660;32;34270;-66
2022/12/19 11:01:08;;;;;;;;;;;;;;;7.58;41.12;101687.03;4354601;32;33316;-64
2022/12/19 11:03:36;;;;;;;;;;;;;;;8.23;39.25;101684.00;4357295;32;34138;-64
2022/12/19 11:06:04;;;;;;;;;;;;;;;6.72;41.84;101685.13;4356390;32;33455;-63
2022/12/19 11:08:32;;;;;;;;;;;;;;;6.92;41.93;101689.00;4359796;32;35755;-62
2022/12/19 11:11:03;;;;;;;;;;;;;;;6.83;42.55;101682.16;4359421;32;33437;-72
2022/12/19 11:13:51;;;;;;;;;;;;;;;6.72;43.50;101671.81;4355214;32;34214;-66
2022/12/19 11:16:38;;;;;;;;;;;;;;;4.22;48.65;101689.88;4355445;32;35029;-67
2022/12/19 11:19:30;;;;;;;;;;;;;;;6.28;44.41;101689.84;4356251;32;35546;-65
2022/12/19 11:22:35;;;;;;;;;;;;;;;6.71;43.53;101680.72;4356821;32;33317;-66
2022/12/19 11:25:29;;;;;;;;;;;;;;;5.91;44.90;101681.03;4350714;32;34166;-66
2022/12/19 11:28:18;;;;;;;;;;;;;;;6.24;44.34;101674.88;4363259;32;33506;-66
2022/12/19 11:31:09;;;;;;;;;;;;;;;5.77;44.65;101676.03;4351577;32;35006;-67
2022/12/19 11:34:06;;;;;;;;;;;;;;;4.74;47.32;101664.16;4348217;32;33717;-68
2022/12/19 11:36:38;;;;;;;;;;;;;;;4.54;48.01;101667.22;4345340;32;33424;-67
2022/12/19 11:39:07;;;;;;;;;;;;;;;4.05;49.89;101674.28;4353627;32;34439;-65
2022/12/19 11:41:40;;;;;;;;;;;;;;;4.18;49.42;101665.22;4350939;32;34298;-65
2022/12/19 11:44:07;;;;;;;;;;;;;;;3.81;50.13;101659.66;4351536;32;34318;-66
2022/12/19 11:46:39;;;;;;;;;;;;;;;3.06;52.33;101642.25;4358360;32;33989;-66
2022/12/19 11:49:06;;;;;;;;;;;;;;;3.07;52.36;101645.78;4354675;32;34674;-65
2022/12/19 11:51:38;;;;;;;;;;;;;;;3.28;52.77;101637.53;4361756;32;33475;-65
2022/12/19 11:54:06;;;;;;;;;;;;;;;3.25;52.23;101643.75;4346047;33;33602;-67
2022/12/19 11:56:33;;;;;;;;;;;;;;;3.40;51.83;101639.12;4351741;32;34983;-65
2022/12/19 11:59:11;;;;;;;;;;;;;;;2.99;52.87;101630.00;4342769;32;34416;-65
2022/12/19 12:01:46;;;;;;;;;;;;;;;2.35;54.91;101634.31;4357393;32;33504;-65
2022/12/19 12:04:30;;;;;;;;;;;;;;;1.63;57.24;101634.97;4355408;32;33489;-64
2022/12/19 12:06:57;;;;;;;;;;;;;;;1.71;56.92;101637.56;4351439;32;33869;-64
2022/12/19 12:09:38;;;;;;;;;;;;;;;2.46;56.09;101632.41;4354752;32;35541;-63
2022/12/19 12:12:30;;;;;;;;;;;;;;;2.36;55.31;101633.41;4367106;32;34075;-63
2022/12/19 12:15:36;;;;;;;;;;;;;;;2.97;53.28;101631.78;4348391;32;34350;-64
2022/12/19 12:18:26;;;;;;;;;;;;;;;2.44;55.32;101631.56;4349530;32;32373;-64
2022/12/19 12:21:33;;;;;;;;;;;;;;;2.25;55.95;101630.03;4368187;32;34970;-63
2022/12/19 12:24:20;;;;;;;;;;;;;;;2.56;55.39;101617.31;4359763;32;34791;-64
2022/12/19 12:27:37;;;;;;;;;;;;;;;3.01;54.08;101621.13;4364042;32;31912;-64
2022/12/19 12:30:24;;;;;;;;;;;;;;;2.93;54.69;101616.87;4324423;32;35312;-65
2022/12/19 12:33:28;;;;;;;;;;;;;;;3.22;53.48;101611.16;4343018;32;33900;-64
2022/12/19 12:36:19;;;;;;;;;;;;;;;3.02;54.13;101607.03;4348988;32;33945;-64
2022/12/19 12:39:33;;;;;;;;;;;;;;;2.17;57.37;101614.22;4360351;32;34218;-66
2022/12/19 12:42:03;;;;;;;;;;;;;;;2.90;54.72;101622.19;4339921;32;33989;-63
2022/12/19 12:44:31;;;;;;;;;;;;;;;2.83;55.35;101620.53;4359427;32;33586;-65
2022/12/19 12:47:20;;;;;;;;;;;;;;;2.25;56.47;101624.75;4361651;32;33397;-65
2022/12/19 12:49:53;;;;;;;;;;;;;;;3.08;55.07;101615.75;4360657;32;32137;-65
2022/12/19 12:52:22;;;;;;;;;;;;;;;2.94;54.84;101615.97;4356190;32;34176;-64
2022/12/19 12:54:50;;;;;;;;;;;;;;;3.26;54.28;101613.72;4348860;32;35278;-65
2022/12/19 12:57:26;;;;;;;;;;;;;;;3.31;53.71;101613.69;4348129;32;34370;-65
2022/12/19 13:00:15;;;;;;;;;;;;;;;3.48;52.80;101602.81;4356831;32;33089;-64
2022/12/19 13:02:51;;;;;;;;;;;;;;;3.09;54.66;101599.87;4357517;32;34941;-65
2022/12/19 13:05:21;;;;;;;;;;;;;;;2.70;54.86;101591.59;4357616;32;35297;-64
2022/12/19 13:07:52;;;;;;;;;;;;;;;3.36;54.29;101585.34;4357579;32;34450;-64
2022/12/19 13:10:29;;;;;;;;;;;;;;;3.92;52.72;101591.47;4361868;32;33214;-65
2022/12/19 13:13:00;;;;;;;;;;;;;;;3.91;52.89;101597.66;4358914;32;34426;-66
2022/12/19 13:15:27;;;;;;;;;;;;;;;3.50;53.25;101593.09;4356257;32;34152;-65
2022/12/19 13:17:55;;;;;;;;;;;;;;;4.22;51.57;101583.88;4357532;32;33769;-65
2022/12/19 13:20:28;;;;;;;;;;;;;;;3.74;52.79;101582.06;4359909;32;34747;-65